Time;durP1;ratioP1;P1;durP2;ratioP2;P2;SDS_P1;SDS_P2;PMS_P1;PMS_P2;Temp;Humidity;BMP_temperature;BMP_pressure;BME280_temperature;BME280_humidity;BME280_pressure;Samples;Min_cycle;Max_cycle;Signal;HPM_P1;HPM_P2
2022/08/31 00:03:56;;;;;;;4.77;3.00;;;16.90;99.90;;;;;;6068533;23;20241;-62
2022/08/31 00:06:24;;;;;;;6.90;3.13;;;16.90;99.90;;;;;;6068402;23;20269;-61
2022/08/31 00:08:53;;;;;;;4.83;3.20;;;16.90;99.90;;;;;;6068312;23;20204;-62
2022/08/31 00:11:27;;;;;;;5.10;3.47;;;16.90;99.90;;;;;;6042582;23;20541;-62
2022/08/31 00:13:57;;;;;;;3.40;3.03;;;16.80;99.90;;;;;;6019045;23;20168;-62
2022/08/31 00:16:27;;;;;;;3.43;3.00;;;16.80;99.90;;;;;;6067776;23;20166;-62
2022/08/31 00:18:55;;;;;;;4.37;3.70;;;16.80;99.90;;;;;;6042509;23;20622;-61
2022/08/31 00:21:27;;;;;;;3.23;3.03;;;16.80;99.90;;;;;;6042882;23;20222;-61
2022/08/31 00:23:57;;;;;;;3.97;3.60;;;16.70;99.90;;;;;;6067716;23;20649;-62
2022/08/31 00:26:25;;;;;;;3.50;3.20;;;16.70;99.90;;;;;;6067612;23;20271;-62
2022/08/31 00:28:54;;;;;;;3.77;3.47;;;16.70;99.90;;;;;;6067757;23;20502;-61
2022/08/31 00:31:22;;;;;;;5.10;3.67;;;16.70;99.90;;;;;;6042597;23;20530;-62
2022/08/31 00:33:52;;;;;;;4.13;3.70;;;16.60;99.90;;;;;;6042158;23;20216;-62
2022/08/31 00:36:22;;;;;;;3.90;3.70;;;16.60;99.90;;;;;;6067902;23;20217;-61
2022/08/31 00:38:50;;;;;;;4.13;3.53;;;16.60;99.90;;;;;;6067824;23;20556;-61
2022/08/31 00:41:22;;;;;;;4.10;3.70;;;16.60;99.90;;;;;;6067589;23;20252;-61
2022/08/31 00:43:53;;;;;;;4.43;4.03;;;16.60;99.90;;;;;;6067835;23;20190;-62
2022/08/31 00:46:24;;;;;;;5.77;4.10;;;16.60;99.90;;;;;;6067874;23;20207;-62
2022/08/31 00:48:59;;;;;;;7.60;3.90;;;16.60;99.90;;;;;;6042742;23;20659;-62
2022/08/31 00:51:29;;;;;;;4.20;3.90;;;16.50;99.90;;;;;;6067897;23;20477;-62
2022/08/31 00:53:58;;;;;;;3.93;3.67;;;16.50;99.90;;;;;;6067611;23;20546;-62
2022/08/31 00:56:30;;;;;;;4.30;3.90;;;16.50;99.90;;;;;;6068044;23;20244;-62
2022/08/31 00:58:59;;;;;;;3.97;3.70;;;16.50;99.90;;;;;;6067685;23;20211;-62
2022/08/31 01:04:58;;;;;;;8.23;3.73;;;16.40;99.90;;;;;;6044093;23;20467;-62
2022/08/31 01:08:05;;;;;;;4.60;4.17;;;16.40;99.90;;;;;;6069452;23;20190;-61
2022/08/31 01:10:36;;;;;;;4.10;3.80;;;16.40;99.90;;;;;;6069715;23;20249;-61
2022/08/31 01:13:07;;;;;;;7.07;3.80;;;16.40;99.90;;;;;;6044602;23;20657;-62
2022/08/31 01:15:37;;;;;;;8.03;3.97;;;16.40;99.90;;;;;;6069459;23;20253;-62
2022/08/31 01:18:07;;;;;;;4.00;3.80;;;16.30;99.90;;;;;;6069442;23;20178;-61
2022/08/31 01:20:45;;;;;;;4.63;3.97;;;16.30;99.90;;;;;;6069799;23;20193;-62
2022/08/31 01:23:21;;;;;;;6.50;4.30;;;16.30;99.90;;;;;;6069474;23;20171;-61
2022/08/31 01:25:51;;;;;;;4.23;4.00;;;16.20;99.90;;;;;;6069428;23;20239;-61
2022/08/31 01:28:19;;;;;;;5.67;4.43;;;16.20;99.90;;;;;;6069457;23;20664;-62
2022/08/31 01:30:59;;;;;;;4.23;3.93;;;16.20;99.90;;;;;;6069485;23;20252;-62
2022/08/31 01:33:28;;;;;;;4.50;4.20;;;16.10;99.90;;;;;;6069405;23;20165;-62
2022/08/31 01:35:57;;;;;;;4.50;4.10;;;16.20;99.90;;;;;;6069499;23;20572;-61
2022/08/31 01:38:27;;;;;;;4.53;4.23;;;16.20;99.90;;;;;;6069735;23;20168;-62
2022/08/31 01:40:58;;;;;;;4.17;3.80;;;16.20;99.90;;;;;;6069538;23;20178;-61
2022/08/31 01:43:26;;;;;;;5.47;4.30;;;16.10;99.90;;;;;;6043727;23;20562;-61
2022/08/31 01:45:55;;;;;;;7.27;4.20;;;16.10;99.90;;;;;;6069245;23;20656;-62
2022/08/31 01:48:23;;;;;;;4.60;4.30;;;16.10;99.90;;;;;;6044321;23;20624;-61
2022/08/31 01:50:52;;;;;;;5.97;4.50;;;16.10;99.90;;;;;;6043931;23;20255;-61
2022/08/31 01:53:20;;;;;;;6.07;4.30;;;16.10;99.90;;;;;;6069017;23;20252;-62
2022/08/31 01:55:50;;;;;;;4.23;3.93;;;16.00;99.90;;;;;;6069540;23;20553;-61
2022/08/31 01:58:18;;;;;;;4.67;4.30;;;16.00;99.90;;;;;;6069260;23;20200;-61
2022/08/31 02:00:47;;;;;;;4.50;4.13;;;16.00;99.90;;;;;;6043764;23;20247;-61
2022/08/31 02:03:15;;;;;;;4.27;3.97;;;15.90;99.90;;;;;;6044033;23;20169;-61
2022/08/31 02:05:44;;;;;;;7.13;4.50;;;15.90;99.90;;;;;;6069237;23;20673;-61
2022/08/31 02:08:12;;;;;;;4.70;4.33;;;15.90;99.90;;;;;;6069303;23;20165;-61
2022/08/31 02:10:41;;;;;;;6.20;4.37;;;15.80;99.90;;;;;;6069256;23;20206;-61
2022/08/31 02:13:11;;;;;;;4.80;4.50;;;15.80;99.90;;;;;;6043810;23;20197;-61
2022/08/31 02:15:40;;;;;;;4.93;4.57;;;15.80;99.90;;;;;;6043145;23;20264;-61
2022/08/31 02:18:08;;;;;;;4.67;4.30;;;15.80;99.90;;;;;;6068731;23;20247;-61
2022/08/31 02:20:39;;;;;;;4.43;4.13;;;15.90;99.90;;;;;;6069022;23;20704;-61
2022/08/31 02:23:07;;;;;;;5.37;4.87;;;15.90;99.90;;;;;;6068726;23;20259;-61
2022/08/31 02:25:35;;;;;;;5.00;4.50;;;15.90;99.90;;;;;;6042498;23;20204;-61
2022/08/31 02:28:04;;;;;;;4.73;4.30;;;15.90;99.90;;;;;;6068792;23;20252;-61
2022/08/31 02:30:34;;;;;;;5.37;4.57;;;15.90;99.90;;;;;;6068478;23;20204;-61
2022/08/31 02:33:03;;;;;;;5.00;4.50;;;15.90;99.90;;;;;;6068849;23;20170;-61
2022/08/31 02:35:31;;;;;;;7.63;4.67;;;15.90;99.90;;;;;;6069021;23;20217;-61
2022/08/31 02:38:00;;;;;;;4.50;4.20;;;15.90;99.90;;;;;;6043219;23;20534;-61
2022/08/31 02:40:28;;;;;;;9.53;5.27;;;15.90;99.90;;;;;;6068618;23;20554;-61
2022/08/31 02:42:56;;;;;;;5.17;4.70;;;15.90;99.90;;;;;;6043499;23;20658;-61
2022/08/31 02:45:25;;;;;;;5.30;4.80;;;15.90;99.90;;;;;;6068082;23;20637;-61
2022/08/31 02:47:55;;;;;;;5.53;5.00;;;15.90;99.90;;;;;;6067692;23;20185;-62
2022/08/31 02:50:23;;;;;;;4.43;4.23;;;15.90;99.90;;;;;;6067814;23;20198;-61
2022/08/31 02:52:54;;;;;;;5.30;4.90;;;15.90;99.90;;;;;;6068529;23;20169;-62
2022/08/31 02:55:23;;;;;;;5.43;4.93;;;15.90;99.90;;;;;;6068509;23;20254;-61
2022/08/31 02:57:52;;;;;;;5.43;4.97;;;15.90;99.90;;;;;;6068903;23;20180;-62
2022/08/31 03:00:23;;;;;;;5.30;4.77;;;15.90;99.90;;;;;;6068619;23;20225;-61
2022/08/31 03:02:51;;;;;;;5.17;4.77;;;15.80;99.90;;;;;;6068337;23;20524;-61
2022/08/31 03:05:22;;;;;;;6.07;4.90;;;15.80;99.90;;;;;;6068920;23;20633;-62
2022/08/31 03:07:50;;;;;;;6.00;5.43;;;15.80;99.90;;;;;;6068606;23;20716;-62
2022/08/31 03:10:20;;;;;;;4.90;4.57;;;15.80;99.90;;;;;;6042889;23;20288;-61
2022/08/31 03:12:50;;;;;;;5.53;4.70;;;15.80;99.90;;;;;;6068751;23;20233;-61
2022/08/31 03:15:19;;;;;;;4.93;4.63;;;15.80;99.90;;;;;;6068369;23;20240;-62
2022/08/31 03:17:48;;;;;;;5.33;4.93;;;15.80;99.90;;;;;;6068288;23;20240;-61
2022/08/31 03:20:18;;;;;;;5.57;5.17;;;15.80;99.90;;;;;;6068146;23;20554;-61
2022/08/31 03:22:48;;;;;;;5.33;4.93;;;15.80;99.90;;;;;;6068509;23;20184;-61
2022/08/31 03:25:18;;;;;;;4.90;4.50;;;15.80;99.90;;;;;;6067879;23;20212;-62
2022/08/31 03:27:47;;;;;;;5.40;5.00;;;15.80;99.90;;;;;;6068147;23;20269;-62
2022/08/31 03:30:19;;;;;;;5.30;4.80;;;15.80;99.90;;;;;;6068393;23;20175;-61
2022/08/31 03:32:48;;;;;;;9.70;5.33;;;15.80;99.90;;;;;;6068163;23;20493;-62
2022/08/31 03:35:18;;;;;;;5.60;5.27;;;15.80;99.90;;;;;;6068217;23;20169;-61
2022/08/31 03:37:48;;;;;;;7.07;5.40;;;15.80;99.90;;;;;;6068346;23;20248;-61
2022/08/31 03:40:17;;;;;;;6.67;4.90;;;15.80;99.90;;;;;;6068295;23;20632;-61
2022/08/31 03:42:45;;;;;;;5.17;4.77;;;15.80;99.90;;;;;;6042749;23;20165;-61
2022/08/31 03:45:13;;;;;;;5.90;5.17;;;15.80;99.90;;;;;;6068191;23;20172;-62
2022/08/31 03:47:42;;;;;;;5.70;5.20;;;15.80;99.90;;;;;;6042849;23;20199;-62
2022/08/31 03:50:14;;;;;;;6.30;4.63;;;15.80;99.90;;;;;;6068532;23;20601;-62
2022/08/31 03:52:43;;;;;;;7.67;5.43;;;15.80;99.90;;;;;;6068354;23;20247;-62
2022/08/31 03:55:13;;;;;;;7.43;5.33;;;15.80;99.90;;;;;;6068142;23;20251;-62
2022/08/31 03:57:41;;;;;;;5.47;5.00;;;15.80;99.90;;;;;;6068122;23;20184;-62
2022/08/31 04:00:11;;;;;;;6.13;5.10;;;15.80;99.90;;;;;;6068195;23;20244;-62
2022/08/31 04:02:39;;;;;;;5.60;5.10;;;15.80;99.90;;;;;;6067816;23;20212;-62
2022/08/31 04:05:12;;;;;;;5.80;5.30;;;15.80;99.90;;;;;;6042840;23;20595;-62
2022/08/31 04:07:41;;;;;;;5.57;4.87;;;15.80;99.90;;;;;;6068067;23;20641;-62
2022/08/31 04:10:12;;;;;;;6.30;5.77;;;15.80;99.90;;;;;;6068230;23;20176;-62
2022/08/31 04:12:41;;;;;;;5.90;5.33;;;15.80;99.90;;;;;;6042725;23;20160;-62
2022/08/31 04:15:11;;;;;;;5.57;5.17;;;15.80;99.90;;;;;;6067651;23;20565;-62
2022/08/31 04:17:39;;;;;;;5.37;4.90;;;15.80;99.90;;;;;;6068195;23;20243;-62
2022/08/31 04:20:08;;;;;;;4.90;4.70;;;15.80;99.90;;;;;;6067896;23;20243;-62
2022/08/31 04:22:37;;;;;;;5.40;5.00;;;15.80;99.90;;;;;;6042950;23;20248;-62
2022/08/31 04:25:06;;;;;;;5.53;5.07;;;15.80;99.90;;;;;;6067830;23;20243;-62
2022/08/31 04:27:37;;;;;;;5.60;5.10;;;15.80;99.90;;;;;;6068065;23;20194;-62
2022/08/31 04:30:07;;;;;;;5.20;4.70;;;15.80;99.90;;;;;;6068015;23;20156;-62
2022/08/31 04:32:36;;;;;;;5.00;4.70;;;15.80;99.90;;;;;;6042294;23;20219;-62
2022/08/31 04:35:05;;;;;;;4.60;4.23;;;15.80;99.90;;;;;;6067816;23;20226;-62
2022/08/31 04:37:33;;;;;;;5.53;5.00;;;15.80;99.90;;;;;;6067638;23;20554;-62
2022/08/31 04:40:03;;;;;;;5.43;4.93;;;15.80;99.90;;;;;;6067930;23;20169;-62
2022/08/31 04:42:35;;;;;;;5.70;5.20;;;15.70;99.90;;;;;;6068055;23;20220;-62
2022/08/31 04:45:07;;;;;;;6.07;5.40;;;15.70;99.90;;;;;;6067885;23;20986;-62
2022/08/31 04:47:35;;;;;;;6.00;5.03;;;15.70;99.90;;;;;;6067773;23;20274;-62
2022/08/31 04:50:06;;;;;;;6.13;5.60;;;15.60;99.90;;;;;;6067968;23;20194;-62
2022/08/31 04:52:35;;;;;;;5.50;5.00;;;15.60;99.90;;;;;;6067847;23;20253;-62
2022/08/31 04:55:03;;;;;;;5.57;5.00;;;15.60;99.90;;;;;;6067685;23;20223;-62
2022/08/31 04:57:34;;;;;;;5.57;5.17;;;15.50;99.90;;;;;;6067742;23;20217;-62
2022/08/31 05:00:07;;;;;;;6.10;5.60;;;15.50;99.90;;;;;;6042935;23;20196;-62
2022/08/31 05:02:35;;;;;;;5.50;4.90;;;15.50;99.90;;;;;;6041963;23;20172;-62
2022/08/31 05:05:04;;;;;;;5.90;5.13;;;15.50;99.90;;;;;;6042604;23;20327;-62
2022/08/31 05:07:33;;;;;;;9.43;4.80;;;15.50;99.90;;;;;;6042361;23;20530;-62
2022/08/31 05:10:01;;;;;;;7.00;5.43;;;15.50;99.90;;;;;;6042184;23;20220;-62
2022/08/31 05:12:31;;;;;;;5.93;5.37;;;15.50;99.90;;;;;;6042184;23;20251;-62
2022/08/31 05:14:59;;;;;;;6.00;5.50;;;15.40;99.90;;;;;;6042656;23;20177;-62
2022/08/31 05:17:29;;;;;;;7.13;5.40;;;15.40;99.90;;;;;;6067708;23;20208;-62
2022/08/31 05:19:57;;;;;;;6.33;5.30;;;15.50;99.90;;;;;;6067783;23;20175;-62
2022/08/31 05:22:26;;;;;;;6.27;5.20;;;15.50;99.90;;;;;;6042586;23;20259;-62
2022/08/31 05:24:54;;;;;;;6.53;5.17;;;15.50;99.90;;;;;;6067784;23;20224;-62
2022/08/31 05:27:22;;;;;;;6.00;5.50;;;15.50;99.90;;;;;;6042190;23;20206;-62
2022/08/31 05:29:51;;;;;;;5.90;5.40;;;15.60;99.90;;;;;;6067967;23;20192;-62
2022/08/31 05:32:19;;;;;;;7.03;5.77;;;15.60;99.90;;;;;;6067704;23;20165;-62
2022/08/31 05:34:49;;;;;;;8.90;5.70;;;15.60;99.90;;;;;;6067533;23;20248;-62
2022/08/31 05:37:17;;;;;;;5.97;5.37;;;15.70;99.90;;;;;;6067506;23;20205;-62
2022/08/31 05:39:45;;;;;;;6.90;4.83;;;15.70;99.90;;;;;;6068015;23;20195;-62
2022/08/31 05:42:14;;;;;;;5.90;5.33;;;15.80;99.90;;;;;;6067778;23;20172;-62
2022/08/31 05:44:42;;;;;;;7.20;5.07;;;15.90;99.90;;;;;;6067547;23;20216;-62
2022/08/31 05:47:11;;;;;;;5.80;5.30;;;16.00;99.90;;;;;;6067726;23;20248;-62
2022/08/31 05:49:42;;;;;;;8.17;5.60;;;16.10;99.90;;;;;;6067611;23;20204;-62
2022/08/31 05:52:12;;;;;;;5.67;5.23;;;16.20;99.90;;;;;;6069067;23;20741;-62
2022/08/31 05:54:41;;;;;;;7.10;5.47;;;16.20;99.90;;;;;;6069468;23;20479;-62
2022/08/31 05:57:09;;;;;;;6.67;5.10;;;16.30;99.90;;;;;;6043846;23;20180;-62
2022/08/31 05:59:39;;;;;;;6.97;5.27;;;16.40;99.90;;;;;;6069295;23;20161;-62
2022/08/31 06:02:10;;;;;;;6.50;5.03;;;16.40;99.90;;;;;;6069543;23;20267;-61
2022/08/31 06:04:38;;;;;;;9.43;5.10;;;16.40;99.90;;;;;;6069523;23;20175;-62
2022/08/31 06:07:08;;;;;;;5.90;5.30;;;16.40;99.90;;;;;;6068925;23;20166;-62
2022/08/31 06:09:38;;;;;;;5.30;4.80;;;16.50;99.90;;;;;;6069645;23;20227;-62
2022/08/31 06:12:09;;;;;;;5.27;4.80;;;16.50;99.90;;;;;;6069374;23;20532;-62
2022/08/31 06:14:39;;;;;;;8.20;5.03;;;16.50;99.90;;;;;;6068627;23;20336;-62
2022/08/31 06:17:16;;;;;;;5.80;4.80;;;16.60;99.90;;;;;;6069351;23;20518;-62
2022/08/31 06:19:44;;;;;;;5.60;4.67;;;16.60;99.90;;;;;;6043535;23;20203;-62
2022/08/31 06:22:12;;;;;;;5.23;4.80;;;16.70;99.90;;;;;;6069062;23;20249;-62
2022/08/31 06:24:42;;;;;;;5.00;4.60;;;16.70;99.90;;;;;;6068868;23;20173;-62
2022/08/31 06:27:10;;;;;;;5.93;5.13;;;16.70;99.90;;;;;;6069379;23;20210;-62
2022/08/31 06:29:40;;;;;;;5.80;5.03;;;16.70;99.90;;;;;;6069007;23;20189;-62
2022/08/31 06:32:14;;;;;;;8.87;5.00;;;16.80;99.90;;;;;;6068985;23;20580;-62
2022/08/31 06:34:43;;;;;;;5.20;4.80;;;16.80;99.90;;;;;;6067726;23;20218;-62
2022/08/31 06:37:12;;;;;;;7.17;4.97;;;16.80;99.90;;;;;;6068577;23;20230;-62
2022/08/31 06:39:51;;;;;;;5.63;5.10;;;16.80;99.90;;;;;;6068627;23;20205;-62
2022/08/31 06:42:20;;;;;;;5.27;4.87;;;16.90;99.90;;;;;;6068369;23;20613;-62
2022/08/31 06:45:26;;;;;;;5.13;4.63;;;16.90;99.90;;;;;;6068503;23;20626;-62
2022/08/31 06:47:57;;;;;;;5.67;5.10;;;17.00;99.90;;;;;;6068628;23;20537;-63
2022/08/31 06:50:25;;;;;;;5.67;5.17;;;17.10;99.90;;;;;;6068731;23;20610;-62
2022/08/31 06:52:56;;;;;;;9.03;4.83;;;17.30;99.90;;;;;;6018588;23;20177;-62
2022/08/31 06:55:26;;;;;;;6.47;4.80;;;17.40;99.90;;;;;;6019352;23;20183;-62
2022/08/31 06:57:54;;;;;;;5.23;4.73;;;17.60;99.90;;;;;;6043172;23;20172;-62
2022/08/31 07:00:23;;;;;;;5.10;4.60;;;17.70;99.90;;;;;;6068352;23;20211;-62
2022/08/31 07:02:51;;;;;;;4.93;4.53;;;17.80;99.90;;;;;;6068370;23;20219;-61
2022/08/31 07:05:25;;;;;;;5.10;3.90;;;17.90;99.90;;;;;;6041953;23;20227;-62
2022/08/31 07:07:53;;;;;;;4.67;4.27;;;18.00;99.90;;;;;;6067166;23;20502;-62
2022/08/31 07:10:22;;;;;;;4.70;4.20;;;18.20;99.90;;;;;;6067899;23;20567;-62
2022/08/31 07:12:51;;;;;;;4.37;4.07;;;18.30;99.90;;;;;;6067736;23;20196;-62
2022/08/31 07:15:20;;;;;;;4.27;3.97;;;18.50;99.90;;;;;;6067075;23;20471;-62
2022/08/31 07:17:50;;;;;;;6.07;4.47;;;18.60;99.90;;;;;;6042101;23;20176;-62
2022/08/31 07:20:19;;;;;;;4.20;4.00;;;18.70;99.90;;;;;;6067939;23;20255;-62
2022/08/31 07:22:47;;;;;;;4.60;4.00;;;18.80;99.90;;;;;;6067538;23;20168;-62
2022/08/31 07:25:16;;;;;;;6.03;4.13;;;18.80;99.90;;;;;;6042692;23;20200;-62
2022/08/31 07:27:45;;;;;;;5.50;4.00;;;18.90;99.90;;;;;;6041886;23;20232;-62
2022/08/31 07:30:15;;;;;;;4.37;3.97;;;18.90;99.90;;;;;;6066730;23;20287;-62
2022/08/31 07:32:44;;;;;;;5.43;3.97;;;18.90;99.90;;;;;;6065590;23;20175;-62
2022/08/31 07:35:12;;;;;;;5.83;3.90;;;18.90;99.90;;;;;;6066824;23;20170;-62
2022/08/31 07:43:13;;;;;;;5.17;3.50;;;19.00;99.90;;;;;;6065254;23;20168;-62
2022/08/31 07:45:43;;;;;;;4.50;4.00;;;19.00;99.90;;;;;;6067077;23;20175;-62
2022/08/31 07:48:14;;;;;;;4.43;4.03;;;19.20;99.90;;;;;;6041585;23;20175;-62
2022/08/31 07:50:45;;;;;;;4.73;4.30;;;19.30;99.90;;;;;;6066401;23;20184;-62
2022/08/31 07:53:14;;;;;;;5.73;4.40;;;19.20;99.90;;;;;;6067685;23;20196;-62
2022/08/31 07:55:46;;;;;;;6.47;4.30;;;19.00;99.90;;;;;;6042807;23;20702;-62
2022/08/31 07:58:16;;;;;;;3.83;3.63;;;19.00;99.90;;;;;;6067727;23;20176;-63
2022/08/31 08:00:46;;;;;;;4.93;4.00;;;19.10;99.90;;;;;;6067174;23;20165;-62
2022/08/31 08:03:14;;;;;;;4.10;3.80;;;19.30;99.90;;;;;;6018227;23;20731;-62
2022/08/31 08:05:43;;;;;;;4.87;4.13;;;19.40;99.90;;;;;;6067160;23;20164;-61
2022/08/31 08:08:11;;;;;;;5.57;4.07;;;19.40;99.90;;;;;;6067745;23;20502;-62
2022/08/31 08:10:47;;;;;;;3.73;3.53;;;19.30;99.90;;;;;;6066800;23;20195;-62
2022/08/31 08:13:21;;;;;;;6.77;4.07;;;19.30;99.90;;;;;;6066483;23;20172;-62
2022/08/31 08:15:51;;;;;;;4.40;4.03;;;19.40;99.90;;;;;;6041946;23;20183;-62
2022/08/31 08:18:20;;;;;;;6.10;3.87;;;19.60;99.90;;;;;;6066826;23;20248;-62
2022/08/31 08:24:57;;;;;;;11.03;4.10;;;20.00;99.90;;;;;;6066835;23;20195;-62
2022/08/31 08:27:27;;;;;;;3.90;3.53;;;20.40;99.90;;;;;;6042323;23;20670;-62
2022/08/31 08:29:56;;;;;;;4.27;3.80;;;20.50;99.90;;;;;;6066051;23;20172;-62
2022/08/31 08:32:26;;;;;;;5.87;3.77;;;20.60;99.90;;;;;;6066613;23;20168;-61
2022/08/31 08:34:55;;;;;;;4.97;3.77;;;20.70;99.90;;;;;;6039975;23;20172;-62
2022/08/31 08:37:26;;;;;;;4.33;3.70;;;20.90;99.90;;;;;;6065126;23;20685;-62
2022/08/31 08:40:29;;;;;;;4.37;3.50;;;20.90;99.90;;;;;;6063454;23;20252;-62
2022/08/31 08:42:58;;;;;;;5.57;3.33;;;21.00;99.90;;;;;;6063076;23;20236;-62
2022/08/31 08:45:27;;;;;;;4.53;4.03;;;21.20;99.90;;;;;;6064796;23;20165;-62
2022/08/31 08:47:57;;;;;;;3.87;3.60;;;21.40;99.90;;;;;;6066955;23;20180;-62
2022/08/31 08:50:28;;;;;;;3.87;3.50;;;21.50;99.90;;;;;;6066041;23;20215;-62
2022/08/31 08:53:00;;;;;;;7.63;4.10;;;21.40;99.90;;;;;;6040634;23;20200;-62
2022/08/31 08:55:35;;;;;;;4.00;3.70;;;21.40;99.90;;;;;;6067029;23;20203;-62
2022/08/31 08:58:09;;;;;;;3.50;3.10;;;21.50;99.90;;;;;;6041964;23;20169;-62
2022/08/31 09:00:45;;;;;;;4.10;3.80;;;21.70;99.90;;;;;;6066128;23;20251;-62
2022/08/31 09:03:21;;;;;;;7.30;3.53;;;22.10;99.90;;;;;;6066568;23;20165;-63
2022/08/31 09:06:00;;;;;;;4.53;3.57;;;22.20;99.90;;;;;;6063673;23;20173;-62
2022/08/31 09:09:16;;;;;;;3.67;3.47;;;22.40;99.90;;;;;;6065859;23;20243;-62
2022/08/31 09:11:54;;;;;;;7.27;3.73;;;22.40;99.90;;;;;;5950182;24;20222;-62
2022/08/31 09:14:36;;;;;;;3.70;3.40;;;22.60;99.90;;;;;;5950621;24;20179;-62
2022/08/31 09:17:15;;;;;;;5.60;3.33;;;22.70;99.90;;;;;;6023877;23;20236;-62
2022/08/31 09:20:00;;;;;;;5.80;3.77;;;22.80;99.90;;;;;;6066263;23;20217;-62
2022/08/31 09:22:29;;;;;;;4.77;3.40;;;22.70;99.90;;;;;;6066337;23;20197;-62
2022/08/31 09:24:59;;;;;;;5.90;3.40;;;22.70;99.90;;;;;;6043236;23;20209;-62
2022/08/31 09:27:44;;;;;;;3.13;3.03;;;22.80;99.90;;;;;;6069567;23;20253;-63
2022/08/31 09:30:34;;;;;;;4.77;3.73;;;22.90;99.90;;;;;;6069224;23;20182;-62
2022/08/31 09:33:02;;;;;;;3.90;3.60;;;23.00;99.90;;;;;;6068727;23;20267;-62
2022/08/31 09:35:40;;;;;;;4.70;3.30;;;23.00;99.90;;;;;;6043319;23;20164;-62
2022/08/31 09:38:11;;;;;;;3.90;3.60;;;23.10;99.90;;;;;;6067913;23;20172;-62
2022/08/31 09:40:42;;;;;;;3.80;3.40;;;23.30;99.90;;;;;;6066792;23;20169;-62
2022/08/31 09:43:21;;;;;;;5.17;3.63;;;23.40;99.90;;;;;;6068549;23;20190;-62
2022/08/31 09:45:58;;;;;;;3.67;3.13;;;23.50;99.90;;;;;;6068312;23;20160;-62
2022/08/31 09:48:50;;;;;;;7.10;5.00;;;23.60;99.90;;;;;;6068472;23;20161;-62
2022/08/31 09:51:26;;;;;;;6.80;4.63;;;23.70;99.90;;;;;;6067777;23;20191;-62
2022/08/31 09:56:54;;;;;;;4.47;3.33;;;24.00;99.90;;;;;;6042313;23;20467;-63
2022/08/31 09:59:36;;;;;;;3.63;3.33;;;24.00;99.90;;;;;;6066371;23;20175;-63
2022/08/31 10:02:12;;;;;;;3.97;3.60;;;24.10;99.90;;;;;;6066108;23;20610;-63
2022/08/31 10:04:49;;;;;;;4.67;3.30;;;24.40;99.90;;;;;;6041552;23;20168;-63
2022/08/31 10:07:42;;;;;;;3.73;3.40;;;24.60;99.90;;;;;;6067809;23;20172;-63
2022/08/31 10:10:16;;;;;;;3.37;3.07;;;24.70;99.90;;;;;;6042386;23;20200;-63
2022/08/31 10:13:04;;;;;;;11.10;3.30;;;24.90;99.90;;;;;;6041839;23;20170;-63
2022/08/31 10:15:42;;;;;;;3.30;3.10;;;24.60;99.90;;;;;;6042909;23;20200;-63
2022/08/31 10:18:15;;;;;;;4.67;3.23;;;24.30;99.90;;;;;;6067389;23;20172;-62
2022/08/31 10:20:50;;;;;;;5.47;3.10;;;24.60;99.90;;;;;;6065805;23;20203;-63
2022/08/31 10:23:28;;;;;;;3.43;3.13;;;25.00;99.90;;;;;;6063994;23;20175;-63
2022/08/31 10:26:02;;;;;;;5.40;3.17;;;25.20;99.90;;;;;;6065180;23;20279;-63
2022/08/31 10:28:34;;;;;;;3.67;3.20;;;25.50;99.90;;;;;;6066479;23;20183;-63
2022/08/31 10:31:07;;;;;;;4.00;3.70;;;25.70;99.90;;;;;;6066780;23;20578;-64
2022/08/31 10:36:31;;;;;;;3.53;3.20;;;26.00;99.90;;;;;;6035327;23;20174;-61
2022/08/31 10:39:02;;;;;;;7.65;3.05;;;26.20;99.90;;;;;;6043425;23;20163;-62
2022/08/31 10:41:39;;;;;;;3.78;3.20;;;26.60;99.90;;;;;;6069169;23;20241;-61
2022/08/31 10:44:22;;;;;;;4.75;3.10;;;26.50;99.90;;;;;;6069114;23;20189;-61
2022/08/31 10:46:53;;;;;;;7.40;3.15;;;26.60;99.90;;;;;;6019855;23;20192;-62
2022/08/31 10:49:22;;;;;;;3.92;3.25;;;26.40;99.90;;;;;;6043903;23;20243;-61
2022/08/31 10:52:02;;;;;;;4.05;3.00;;;26.70;99.90;;;;;;6069285;23;20272;-62
2022/08/31 10:54:39;;;;;;;6.47;3.28;;;26.70;99.90;;;;;;6043794;23;20487;-61
2022/08/31 10:57:18;;;;;;;3.88;3.58;;;26.90;99.90;;;;;;6044013;23;20175;-62
2022/08/31 10:59:56;;;;;;;5.15;3.20;;;26.50;99.90;;;;;;6043838;23;20626;-62
2022/08/31 11:02:51;;;;;;;3.95;3.67;;;26.60;99.90;;;;;;6043512;23;20166;-62
2022/08/31 11:05:32;;;;;;;3.50;3.17;;;26.90;99.90;;;;;;6068851;23;20241;-61
2022/08/31 11:08:22;;;;;;;6.07;3.30;;;26.80;99.90;;;;;;6069038;23;20170;-62
2022/08/31 11:10:55;;;;;;;7.15;3.30;;;27.00;99.90;;;;;;6065800;23;20234;-63
2022/08/31 11:13:41;;;;;;;8.30;2.70;;;27.20;99.90;;;;;;6065699;23;20204;-65
2022/08/31 11:16:40;;;;;;;4.50;2.80;;;27.70;99.90;;;;;;6039965;23;20154;-62
2022/08/31 11:19:36;;;;;;;6.38;2.95;;;27.50;99.90;;;;;;6068793;23;20174;-62
2022/08/31 11:22:36;;;;;;;3.30;3.00;;;27.50;99.90;;;;;;6068337;23;20167;-62
2022/08/31 11:25:52;;;;;;;3.08;2.80;;;27.90;99.90;;;;;;6068614;23;20174;-63
2022/08/31 11:28:32;;;;;;;6.03;3.55;;;27.80;99.90;;;;;;5930421;24;20207;-62
2022/08/31 11:31:03;;;;;;;6.78;3.88;;;27.20;99.90;;;;;;6066441;23;20552;-62
2022/08/31 11:38:40;;;;;;;5.65;4.22;;;27.00;99.90;;;;;;6068973;23;20454;-62
2022/08/31 11:41:10;;;;;;;3.40;3.10;;;27.40;99.90;;;;;;6068787;23;20174;-62
2022/08/31 11:48:53;;;;;;;5.60;3.83;;;27.40;99.90;;;;;;6068031;23;20140;-62
2022/08/31 11:59:25;;;;;;;5.57;3.30;;;27.50;99.90;;;;;;6043591;23;20172;-62
2022/08/31 12:01:55;;;;;;;5.65;3.15;;;27.60;99.90;;;;;;6068866;23;20465;-62
2022/08/31 12:05:01;;;;;;;4.43;3.65;;;27.60;99.90;;;;;;6068598;23;20210;-62
2022/08/31 12:07:39;;;;;;;4.22;3.80;;;27.80;99.90;;;;;;6069071;23;20212;-62
2022/08/31 12:10:33;;;;;;;5.03;3.25;;;27.80;99.90;;;;;;6068397;23;20484;-62
2022/08/31 12:18:00;;;;;;;4.82;3.22;;;27.40;99.90;;;;;;6068665;23;20188;-62
2022/08/31 12:25:22;;;;;;;5.83;3.60;;;27.40;99.90;;;;;;6068726;23;20228;-61
2022/08/31 12:28:06;;;;;;;5.10;3.10;;;27.60;99.90;;;;;;6068499;23;20196;-62
2022/08/31 12:30:34;;;;;;;3.93;3.60;;;27.40;99.90;;;;;;6043537;23;20200;-61
2022/08/31 12:33:11;;;;;;;7.03;4.07;;;27.20;99.90;;;;;;6042993;23;20195;-62
2022/08/31 12:35:39;;;;;;;4.53;3.40;;;27.10;99.90;;;;;;6068697;23;20175;-62
2022/08/31 12:38:09;;;;;;;4.10;3.30;;;27.20;99.90;;;;;;6068221;23;20176;-62
2022/08/31 12:40:43;;;;;;;5.63;3.33;;;27.30;99.90;;;;;;6068471;23;20260;-62
2022/08/31 12:43:16;;;;;;;4.00;3.40;;;27.20;99.90;;;;;;6043181;23;20160;-61
2022/08/31 12:46:18;;;;;;;4.50;4.00;;;27.20;99.90;;;;;;6069102;23;20164;-61
2022/08/31 12:49:24;;;;;;;3.67;3.37;;;27.10;99.90;;;;;;6042911;23;20168;-62
2022/08/31 12:51:58;;;;;;;8.17;4.23;;;27.10;99.90;;;;;;5952295;24;20206;-61
2022/08/31 12:55:11;;;;;;;4.03;3.80;;;26.80;99.90;;;;;;6053003;23;20501;-61
2022/08/31 12:58:06;;;;;;;8.87;3.97;;;26.90;99.90;;;;;;6041932;23;20506;-61
2022/08/31 13:00:38;;;;;;;5.73;3.33;;;27.10;99.90;;;;;;6067342;23;20207;-61
2022/08/31 13:03:15;;;;;;;3.60;3.40;;;26.80;99.90;;;;;;6070474;23;20224;-62
2022/08/31 13:06:01;;;;;;;5.77;3.70;;;27.00;99.90;;;;;;6044968;23;20169;-62
2022/08/31 13:08:36;;;;;;;10.37;3.20;;;27.10;99.90;;;;;;6070631;23;20207;-62
2022/08/31 13:11:17;;;;;;;7.30;3.37;;;27.20;99.90;;;;;;6070138;23;20270;-61
2022/08/31 13:13:51;;;;;;;5.03;3.40;;;27.40;99.90;;;;;;6070222;23;20526;-62
2022/08/31 13:16:20;;;;;;;3.73;3.43;;;27.40;99.90;;;;;;6045061;23;20176;-61
2022/08/31 13:18:50;;;;;;;5.33;3.47;;;27.40;99.90;;;;;;6070146;23;20168;-62
2022/08/31 13:21:22;;;;;;;9.67;3.80;;;27.60;99.90;;;;;;6070308;23;20199;-62
2022/08/31 13:23:51;;;;;;;5.83;4.03;;;28.00;99.90;;;;;;6070164;23;20472;-62
2022/08/31 13:26:22;;;;;;;3.97;3.67;;;27.70;99.90;;;;;;6070017;23;20650;-62
2022/08/31 13:28:53;;;;;;;5.33;3.70;;;27.50;99.90;;;;;;6069987;23;20247;-61
2022/08/31 13:31:24;;;;;;;8.63;4.50;;;27.50;99.90;;;;;;6069929;23;20196;-62
2022/08/31 13:33:55;;;;;;;5.77;3.73;;;27.80;99.90;;;;;;6069804;23;20164;-62
2022/08/31 13:36:31;;;;;;;5.87;3.70;;;27.80;99.90;;;;;;6044500;23;20196;-62
2022/08/31 13:39:02;;;;;;;3.90;3.47;;;27.90;99.90;;;;;;6070245;23;20191;-62
2022/08/31 13:41:34;;;;;;;3.83;3.53;;;28.00;99.90;;;;;;6044018;23;20192;-62
2022/08/31 13:44:08;;;;;;;6.27;3.57;;;28.00;99.90;;;;;;6044716;23;20153;-62
2022/08/31 13:47:15;;;;;;;5.70;3.37;;;27.80;99.90;;;;;;6069417;23;20191;-61
2022/08/31 13:49:44;;;;;;;3.63;2.97;;;27.70;99.90;;;;;;6044546;23;20280;-62
2022/08/31 13:57:11;;;;;;;4.40;4.00;;;28.30;99.90;;;;;;6069698;23;20278;-62
2022/08/31 13:59:40;;;;;;;5.60;3.43;;;28.30;99.90;;;;;;6044587;23;20251;-61
2022/08/31 14:02:32;;;;;;;6.00;3.50;;;28.50;99.90;;;;;;6069447;23;20243;-62
2022/08/31 14:05:07;;;;;;;4.00;3.50;;;28.30;99.90;;;;;;6044168;23;20168;-61
2022/08/31 14:08:00;;;;;;;4.13;3.73;;;27.90;99.90;;;;;;6069648;23;20220;-62
2022/08/31 14:10:35;;;;;;;5.17;3.53;;;27.50;99.90;;;;;;6068981;23;20153;-62